Gao, Mali
Current Conditions -  °F | °C
As of 8:00 PM on Tuesday 21 Oct 2014 (Local Time) from DRRN Reporting Station
Clear Clear  
Wind Chill: 88°   Ceiling: Unl
Heat Index: 88°   Visibility: 5mi
Dew Point: 32°   Wind: 5mph
Humidity: 14%   Direction: 70°ENE
Pressure: 29.88"   Gusts: NA
Location:  16.27°N, 0.05°W
Report Text: DRRN 212000Z 07004KT 8000 NSC 31/00 Q1012 NOSIG
Loading
Personal Weather Stations






























Interactive Weather Map
Tropical Storm Tracking
New forecast layout! Learn more

10-Day Weather Forecast

Advertisements
Track Severe Weather on mobile